createdAt,value
2023-09-27T00:39:15.042Z,94.45
2023-09-27T00:41:44.941Z,93.88
2023-09-27T00:44:14.769Z,93.60
2023-09-27T00:46:44.692Z,93.51
2023-09-27T00:49:15.225Z,93.05
2023-09-27T00:51:45.352Z,91.26
2023-09-27T00:54:17.805Z,91.33
2023-09-27T00:56:48.944Z,92.26
2023-09-27T00:59:19.617Z,92.88
2023-09-27T01:01:50.058Z,92.82
2023-09-27T01:04:21.094Z,92.21
2023-09-27T01:06:50.899Z,91.89
2023-09-27T01:09:23.243Z,92.21
2023-09-27T01:11:53.118Z,91.78
2023-09-27T01:14:23.071Z,92.16
2023-09-27T01:16:52.931Z,92.96
2023-09-27T01:19:22.781Z,92.42
2023-09-27T01:21:52.618Z,92.17
2023-09-27T01:24:27.639Z,92.31
2023-09-27T01:26:58.199Z,91.29
2023-09-27T01:29:28.040Z,90.82
2023-09-27T01:31:58.205Z,91.02
2023-09-27T01:34:28.159Z,91.46
2023-09-27T01:36:59.006Z,91.21
2023-09-27T01:39:32.130Z,92.20
2023-09-27T01:42:01.883Z,93.22
2023-09-27T01:44:31.734Z,93.52
2023-09-27T01:47:01.637Z,93.93
2023-09-27T01:49:32.652Z,93.25
2023-09-27T01:52:02.403Z,92.50
2023-09-27T01:54:34.849Z,92.38
2023-09-27T01:57:04.670Z,92.02
2023-09-27T01:59:34.478Z,91.38
2023-09-27T02:02:04.365Z,91.37
2023-09-27T02:04:34.308Z,90.58
2023-09-27T02:07:04.703Z,90.51
2023-09-27T02:09:37.173Z,90.76
2023-09-27T02:12:07.402Z,91.08
2023-09-27T02:14:37.219Z,91.92
2023-09-27T02:17:09.207Z,91.79
2023-09-27T02:19:38.999Z,92.12
2023-09-27T02:22:09.544Z,92.37
2023-09-27T02:24:42.798Z,90.96
2023-09-27T02:27:12.585Z,90.03
2023-09-27T02:29:42.385Z,89.98
2023-09-27T02:32:12.919Z,89.29
2023-09-27T02:34:43.680Z,88.47
2023-09-27T02:37:16.851Z,88.68
2023-09-27T02:39:49.270Z,89.24
2023-09-27T02:42:19.216Z,88.96
2023-09-27T02:44:49.280Z,88.44
2023-09-27T02:47:19.112Z,89.26
2023-09-27T02:49:49.578Z,89.55
2023-09-27T02:52:19.492Z,90.38
2023-09-27T02:54:52.140Z,90.56
2023-09-27T02:57:21.941Z,91.00
2023-09-27T02:59:51.934Z,91.05
2023-09-27T03:02:21.931Z,90.71
2023-09-27T03:04:52.272Z,90.59
2023-09-27T03:07:22.171Z,90.58
2023-09-27T03:09:54.591Z,91.10
2023-09-27T03:12:25.464Z,91.35
2023-09-27T03:14:55.369Z,90.93
2023-09-27T03:17:25.310Z,90.59
2023-09-27T03:19:56.022Z,90.00
2023-09-27T03:22:26.503Z,90.08
2023-09-27T03:24:58.958Z,90.35
2023-09-27T03:27:28.786Z,90.15
2023-09-27T03:29:58.651Z,89.88
2023-09-27T03:32:28.672Z,90.07
2023-09-27T03:35:00.590Z,90.11
2023-09-27T03:37:31.703Z,91.36
2023-09-27T03:40:08.884Z,91.68
2023-09-27T03:42:38.794Z,90.64
2023-09-27T03:45:09.931Z,89.95
2023-09-27T03:47:41.398Z,90.37
2023-09-27T03:50:13.737Z,90.57
2023-09-27T03:52:44.361Z,91.42
2023-09-27T03:55:17.143Z,90.85
2023-09-27T03:57:47.010Z,90.89
2023-09-27T04:00:18.438Z,91.19
2023-09-27T04:02:50.985Z,90.83
2023-09-27T04:05:24.452Z,90.74
2023-09-27T04:07:54.361Z,90.84
2023-09-27T04:10:28.646Z,90.20
2023-09-27T04:12:58.606Z,90.25
2023-09-27T04:15:28.410Z,89.84
2023-09-27T04:17:58.349Z,90.25
2023-09-27T04:20:28.530Z,90.54
2023-09-27T04:22:58.382Z,90.65
2023-09-27T04:25:30.838Z,90.33
2023-09-27T04:28:00.660Z,90.00
2023-09-27T04:30:30.693Z,90.19
2023-09-27T04:33:01.551Z,89.96
2023-09-27T04:35:31.395Z,89.73
2023-09-27T04:38:01.256Z,89.68
2023-09-27T04:40:33.929Z,90.00
2023-09-27T04:43:03.733Z,90.50
2023-09-27T04:45:35.290Z,90.22
2023-09-27T04:48:05.973Z,88.97
2023-09-27T04:50:36.221Z,89.91
2023-09-27T04:53:06.584Z,90.43
2023-09-27T04:55:39.259Z,90.77
2023-09-27T04:58:09.349Z,90.14
2023-09-27T05:00:39.092Z,89.53
2023-09-27T05:03:09.132Z,89.34
2023-09-27T05:05:39.073Z,89.58
2023-09-27T05:08:09.327Z,89.19
2023-09-27T05:10:41.692Z,88.39
2023-09-27T05:13:11.508Z,88.00
2023-09-27T05:15:41.378Z,87.97
2023-09-27T05:18:11.978Z,88.14
2023-09-27T05:20:41.871Z,88.57
2023-09-27T05:23:11.774Z,88.69
2023-09-27T05:25:45.433Z,88.86
2023-09-27T05:28:15.299Z,89.43
2023-09-27T05:30:45.731Z,89.75
2023-09-27T05:33:15.724Z,90.30
2023-09-27T05:35:45.511Z,90.46
2023-09-27T05:38:15.446Z,90.42
2023-09-27T05:40:47.959Z,91.15
2023-09-27T05:43:17.795Z,91.97
2023-09-27T05:45:47.572Z,92.50
2023-09-27T05:48:17.612Z,92.66
2023-09-27T05:50:51.442Z,92.93
2023-09-27T05:53:21.304Z,92.23
2023-09-27T05:55:54.375Z,91.43
2023-09-27T05:58:24.130Z,91.78
2023-09-27T06:00:56.083Z,93.35
2023-09-27T06:03:27.290Z,94.00
2023-09-27T06:05:57.923Z,94.67
2023-09-27T06:08:27.554Z,95.07
2023-09-27T06:11:00.871Z,96.34
2023-09-27T06:13:30.822Z,96.11
2023-09-27T06:16:02.227Z,95.86
2023-09-27T06:18:33.192Z,95.12
2023-09-27T06:21:05.853Z,95.63
2023-09-27T06:23:36.741Z,96.27
2023-09-27T06:26:10.895Z,96.61
2023-09-27T06:28:41.253Z,97.80
2023-09-27T06:31:11.302Z,98.28
2023-09-27T06:33:42.571Z,98.88
2023-09-27T06:36:13.283Z,99.30
2023-09-27T06:38:45.231Z,99.77
2023-09-27T06:41:19.159Z,99.83
2023-09-27T06:43:49.361Z,100.00
2023-09-27T06:46:20.470Z,100.00
2023-09-27T06:48:50.579Z,100.00
2023-09-27T06:51:21.067Z,100.00
2023-09-27T06:53:51.066Z,100.00
2023-09-27T06:56:23.700Z,100.00
2023-09-27T06:58:54.123Z,100.00
2023-09-27T07:01:26.007Z,100.00
2023-09-27T07:03:56.801Z,100.00
2023-09-27T07:06:26.938Z,100.00
2023-09-27T07:08:59.491Z,100.00
2023-09-27T07:11:32.080Z,100.00
2023-09-27T07:14:02.159Z,100.00
2023-09-27T07:16:34.397Z,100.00
2023-09-27T07:19:07.058Z,100.00
2023-09-27T07:21:38.356Z,100.00
2023-09-27T07:24:11.151Z,100.00
2023-09-27T07:26:47.097Z,100.00
2023-09-27T07:29:18.437Z,100.00
2023-09-27T07:31:48.425Z,100.00
2023-09-27T07:34:18.513Z,100.00
2023-09-27T07:36:48.482Z,100.00
2023-09-27T07:39:19.080Z,100.00
2023-09-27T07:41:51.680Z,100.00
2023-09-27T07:44:22.585Z,100.00
2023-09-27T07:46:52.975Z,100.00
2023-09-27T07:49:24.391Z,100.00
2023-09-27T07:51:54.369Z,100.00
2023-09-27T07:54:25.442Z,100.00
2023-09-27T07:56:58.795Z,99.71
2023-09-27T07:59:29.779Z,100.00
2023-09-27T08:02:00.078Z,99.24
2023-09-27T08:04:30.246Z,98.91
2023-09-27T08:07:00.340Z,97.84
2023-09-27T08:09:41.138Z,95.01
2023-09-27T08:12:14.628Z,90.94
2023-09-27T08:14:44.775Z,88.91
2023-09-27T08:17:15.005Z,86.01
2023-09-27T08:19:44.985Z,86.16
2023-09-27T08:22:15.007Z,83.05
2023-09-27T08:24:45.007Z,83.50
2023-09-27T08:27:17.696Z,85.45
2023-09-27T08:29:48.087Z,85.46
2023-09-27T08:32:17.833Z,85.46
2023-09-27T08:34:50.312Z,86.76
2023-09-27T08:37:20.427Z,86.19
2023-09-27T08:39:50.895Z,85.09
2023-09-27T08:42:24.735Z,82.70
2023-09-27T08:44:56.337Z,84.07
2023-09-27T08:47:26.937Z,83.90
2023-09-27T08:49:59.038Z,82.82
2023-09-27T08:52:29.862Z,82.54
2023-09-27T08:54:59.848Z,83.21
2023-09-27T08:57:32.745Z,82.42
2023-09-27T09:00:02.770Z,79.65
2023-09-27T09:02:33.068Z,77.83
2023-09-27T09:05:05.775Z,78.02
2023-09-27T09:07:35.831Z,77.78
2023-09-27T09:10:05.745Z,75.12
2023-09-27T09:12:39.408Z,74.81
2023-09-27T09:15:15.809Z,73.62
2023-09-27T09:17:49.611Z,71.88
2023-09-27T09:20:24.309Z,70.83
2023-09-27T09:22:56.154Z,69.83
2023-09-27T09:25:26.680Z,70.15
2023-09-27T09:28:10.216Z,69.05
2023-09-27T09:30:41.300Z,66.97
2023-09-27T09:33:14.168Z,67.62
2023-09-27T09:35:44.231Z,65.34
2023-09-27T09:38:14.574Z,67.24
2023-09-27T09:40:56.462Z,67.22
2023-09-27T09:43:37.954Z,66.81
2023-09-27T09:46:12.149Z,65.80
2023-09-27T09:48:43.333Z,66.31
2023-09-27T09:51:13.520Z,65.48
2023-09-27T09:53:44.461Z,66.46
2023-09-27T09:58:59.041Z,64.17
2023-09-27T10:01:30.440Z,62.02
2023-09-27T10:04:05.749Z,61.38
2023-09-27T10:06:48.244Z,59.59
2023-09-27T10:09:19.350Z,58.25
2023-09-27T10:11:49.865Z,62.13
2023-09-27T10:14:23.101Z,62.39
2023-09-27T10:16:53.007Z,61.32
2023-09-27T10:19:30.251Z,57.55
2023-09-27T10:22:09.380Z,61.19
2023-09-27T10:24:40.650Z,63.33
2023-09-27T10:27:10.473Z,64.10
2023-09-27T10:30:02.064Z,64.12
2023-09-27T10:32:32.449Z,64.12
2023-09-27T10:35:19.771Z,65.81
2023-09-27T10:38:07.883Z,65.59
2023-09-27T10:40:45.112Z,65.44
2023-09-27T10:43:15.325Z,66.50
2023-09-27T10:45:58.840Z,67.11
2023-09-27T10:48:28.714Z,65.50
2023-09-27T10:50:58.666Z,64.22
2023-09-27T10:53:28.842Z,65.17
2023-09-27T10:55:59.092Z,64.56
2023-09-27T10:58:28.693Z,63.78
2023-09-27T11:01:05.178Z,64.13
2023-09-27T11:03:35.624Z,59.31
2023-09-27T11:06:12.820Z,60.19
2023-09-27T11:08:43.950Z,61.17
2023-09-27T11:11:14.716Z,61.86
2023-09-27T11:13:45.651Z,59.83
2023-09-27T11:16:19.721Z,60.92
2023-09-27T11:18:50.594Z,59.50
2023-09-27T11:21:20.602Z,58.64
2023-09-27T11:23:57.819Z,58.04
2023-09-27T11:26:28.798Z,59.23
2023-09-27T11:29:02.584Z,59.78
2023-09-27T11:31:36.771Z,58.02
2023-09-27T11:34:16.810Z,59.12
2023-09-27T11:36:47.794Z,58.10
2023-09-27T11:39:18.355Z,58.19
2023-09-27T11:41:48.794Z,58.36
2023-09-27T11:44:19.954Z,60.04
2023-09-27T11:46:53.348Z,56.98
2023-09-27T11:49:23.333Z,59.25
2023-09-27T11:51:53.228Z,56.26
2023-09-27T11:54:23.082Z,56.07
2023-09-27T11:56:54.677Z,57.35
2023-09-27T11:59:25.103Z,55.86
2023-09-27T12:02:00.287Z,55.81
2023-09-27T12:04:32.082Z,54.68
2023-09-27T12:07:02.373Z,55.94
2023-09-27T12:09:32.542Z,53.92
2023-09-27T12:12:02.325Z,53.20
2023-09-27T12:14:32.113Z,54.69
2023-09-27T12:17:04.736Z,52.54
2023-09-27T12:19:35.879Z,54.70
2023-09-27T12:22:05.970Z,56.67
2023-09-27T12:24:35.822Z,56.95
2023-09-27T12:27:05.692Z,56.39
2023-09-27T12:29:35.499Z,55.96
2023-09-27T12:32:08.053Z,54.71
2023-09-27T12:34:37.842Z,56.43
2023-09-27T12:37:07.671Z,54.05
2023-09-27T12:39:38.885Z,54.65
